sensor_id;sensor_type;location;lat;lon;timestamp;temperature;humidity
17529;DHT22;8882;53.192;8.184;2022-09-09T04:31:08;14.40;99.90
17529;DHT22;8882;53.192;8.184;2022-09-09T04:33:34;14.40;99.90
17529;DHT22;8882;53.192;8.184;2022-09-09T04:36:00;14.30;99.90
17529;DHT22;8882;53.192;8.184;2022-09-09T04:38:25;14.30;99.90
17529;DHT22;8882;53.192;8.184;2022-09-09T04:40:51;14.30;99.90
17529;DHT22;8882;53.192;8.184;2022-09-09T04:43:20;14.30;99.90
17529;DHT22;8882;53.192;8.184;2022-09-09T04:45:50;14.20;99.90
17529;DHT22;8882;53.192;8.184;2022-09-09T04:48:17;14.20;99.90
17529;DHT22;8882;53.192;8.184;2022-09-09T04:50:43;14.30;99.90
17529;DHT22;8882;53.192;8.184;2022-09-09T04:53:09;14.20;99.90
17529;DHT22;8882;53.192;8.184;2022-09-09T04:55:35;14.20;99.90
17529;DHT22;8882;53.192;8.184;2022-09-09T04:58:05;14.20;99.90
17529;DHT22;8882;53.192;8.184;2022-09-09T05:00:31;14.20;99.90
17529;DHT22;8882;53.192;8.184;2022-09-09T05:02:56;14.20;99.90
17529;DHT22;8882;53.192;8.184;2022-09-09T05:05:22;14.20;99.90
17529;DHT22;8882;53.192;8.184;2022-09-09T05:07:47;14.30;99.90
17529;DHT22;8882;53.192;8.184;2022-09-09T05:10:14;14.20;99.90
17529;DHT22;8882;53.192;8.184;2022-09-09T05:12:41;14.30;99.90
17529;DHT22;8882;53.192;8.184;2022-09-09T05:15:07;14.20;99.90
17529;DHT22;8882;53.192;8.184;2022-09-09T05:17:33;14.20;99.90
17529;DHT22;8882;53.192;8.184;2022-09-09T05:19:59;14.20;99.90
17529;DHT22;8882;53.192;8.184;2022-09-09T05:22:24;14.20;99.90
17529;DHT22;8882;53.192;8.184;2022-09-09T05:24:50;14.20;99.90
17529;DHT22;8882;53.192;8.184;2022-09-09T05:27:17;14.20;99.90
17529;DHT22;8882;53.192;8.184;2022-09-09T05:29:45;14.30;99.90
17529;DHT22;8882;53.192;8.184;2022-09-09T05:32:11;14.20;99.90
17529;DHT22;8882;53.192;8.184;2022-09-09T05:34:36;14.20;99.90
17529;DHT22;8882;53.192;8.184;2022-09-09T05:37:03;14.30;99.90
17529;DHT22;8882;53.192;8.184;2022-09-09T05:39:29;14.30;99.90
17529;DHT22;8882;53.192;8.184;2022-09-09T05:41:55;14.30;99.90
17529;DHT22;8882;53.192;8.184;2022-09-09T05:44:20;14.30;99.90
17529;DHT22;8882;53.192;8.184;2022-09-09T05:46:48;14.30;99.90
17529;DHT22;8882;53.192;8.184;2022-09-09T05:49:14;14.40;99.90
17529;DHT22;8882;53.192;8.184;2022-09-09T05:51:41;14.40;99.90
17529;DHT22;8882;53.192;8.184;2022-09-09T05:54:08;14.40;99.90
17529;DHT22;8882;53.192;8.184;2022-09-09T05:56:34;14.50;99.90
17529;DHT22;8882;53.192;8.184;2022-09-09T05:58:59;14.50;99.90
17529;DHT22;8882;53.192;8.184;2022-09-09T06:01:31;14.50;99.90
17529;DHT22;8882;53.192;8.184;2022-09-09T06:03:56;14.70;99.90
17529;DHT22;8882;53.192;8.184;2022-09-09T06:06:24;14.70;99.90
17529;DHT22;8882;53.192;8.184;2022-09-09T06:08:52;14.80;99.90
17529;DHT22;8882;53.192;8.184;2022-09-09T06:11:29;14.90;99.90
17529;DHT22;8882;53.192;8.184;2022-09-09T06:13:56;15.00;99.90
17529;DHT22;8882;53.192;8.184;2022-09-09T06:16:24;15.10;99.90
17529;DHT22;8882;53.192;8.184;2022-09-09T06:18:50;15.20;99.90
17529;DHT22;8882;53.192;8.184;2022-09-09T06:21:18;15.20;99.90
17529;DHT22;8882;53.192;8.184;2022-09-09T06:23:44;15.20;99.90
17529;DHT22;8882;53.192;8.184;2022-09-09T06:26:17;15.30;99.90
17529;DHT22;8882;53.192;8.184;2022-09-09T06:28:43;15.40;99.90
17529;DHT22;8882;53.192;8.184;2022-09-09T06:31:11;15.40;99.90
17529;DHT22;8882;53.192;8.184;2022-09-09T06:33:39;15.40;99.90
17529;DHT22;8882;53.192;8.184;2022-09-09T06:36:11;15.40;99.90
17529;DHT22;8882;53.192;8.184;2022-09-09T06:38:37;15.40;99.90
17529;DHT22;8882;53.192;8.184;2022-09-09T06:41:02;15.40;99.90
17529;DHT22;8882;53.192;8.184;2022-09-09T06:43:29;15.40;99.90
17529;DHT22;8882;53.192;8.184;2022-09-09T06:46:00;15.40;99.90
17529;DHT22;8882;53.192;8.184;2022-09-09T06:48:27;15.40;99.90
17529;DHT22;8882;53.192;8.184;2022-09-09T06:51:03;15.30;99.90
17529;DHT22;8882;53.192;8.184;2022-09-09T06:53:29;15.30;99.90
17529;DHT22;8882;53.192;8.184;2022-09-09T06:55:55;15.40;99.90
17529;DHT22;8882;53.192;8.184;2022-09-09T06:58:20;15.40;99.90
17529;DHT22;8882;53.192;8.184;2022-09-09T07:00:47;15.40;99.90
17529;DHT22;8882;53.192;8.184;2022-09-09T07:03:13;15.40;99.90
17529;DHT22;8882;53.192;8.184;2022-09-09T07:05:39;15.40;99.90
17529;DHT22;8882;53.192;8.184;2022-09-09T07:08:04;15.50;99.90
17529;DHT22;8882;53.192;8.184;2022-09-09T07:10:31;15.50;99.90
17529;DHT22;8882;53.192;8.184;2022-09-09T07:12:56;15.60;99.90
17529;DHT22;8882;53.192;8.184;2022-09-09T07:15:22;15.60;99.90
17529;DHT22;8882;53.192;8.184;2022-09-09T07:17:48;15.70;99.90
17529;DHT22;8882;53.192;8.184;2022-09-09T07:20:14;15.80;99.90
17529;DHT22;8882;53.192;8.184;2022-09-09T07:22:40;15.90;99.90
17529;DHT22;8882;53.192;8.184;2022-09-09T07:25:07;16.10;99.90
17529;DHT22;8882;53.192;8.184;2022-09-09T07:27:32;16.20;99.90
17529;DHT22;8882;53.192;8.184;2022-09-09T07:29:58;16.40;99.90
17529;DHT22;8882;53.192;8.184;2022-09-09T07:32:23;16.60;99.90
17529;DHT22;8882;53.192;8.184;2022-09-09T07:34:51;16.70;99.90
17529;DHT22;8882;53.192;8.184;2022-09-09T07:37:16;16.80;99.90
17529;DHT22;8882;53.192;8.184;2022-09-09T07:39:42;16.90;99.90
17529;DHT22;8882;53.192;8.184;2022-09-09T07:42:08;17.00;99.90
17529;DHT22;8882;53.192;8.184;2022-09-09T07:44:36;17.00;99.90
17529;DHT22;8882;53.192;8.184;2022-09-09T07:47:02;17.00;99.90
17529;DHT22;8882;53.192;8.184;2022-09-09T07:49:28;17.00;99.90
17529;DHT22;8882;53.192;8.184;2022-09-09T07:51:54;17.00;99.90
17529;DHT22;8882;53.192;8.184;2022-09-09T07:54:21;17.00;99.90
17529;DHT22;8882;53.192;8.184;2022-09-09T07:56:49;17.10;99.90
17529;DHT22;8882;53.192;8.184;2022-09-09T07:59:15;17.20;99.90
17529;DHT22;8882;53.192;8.184;2022-09-09T08:01:44;17.30;99.90
17529;DHT22;8882;53.192;8.184;2022-09-09T08:04:13;17.30;99.90
17529;DHT22;8882;53.192;8.184;2022-09-09T08:06:42;17.50;99.90
17529;DHT22;8882;53.192;8.184;2022-09-09T08:09:09;17.60;99.90
17529;DHT22;8882;53.192;8.184;2022-09-09T08:11:34;17.80;99.90
17529;DHT22;8882;53.192;8.184;2022-09-09T08:14:02;18.00;99.90
17529;DHT22;8882;53.192;8.184;2022-09-09T08:16:30;18.00;99.90
17529;DHT22;8882;53.192;8.184;2022-09-09T08:18:57;18.10;99.90
17529;DHT22;8882;53.192;8.184;2022-09-09T08:21:25;18.10;99.90
17529;DHT22;8882;53.192;8.184;2022-09-09T08:23:54;18.00;99.90
17529;DHT22;8882;53.192;8.184;2022-09-09T08:26:28;18.10;99.90
17529;DHT22;8882;53.192;8.184;2022-09-09T08:28:56;18.20;99.90
17529;DHT22;8882;53.192;8.184;2022-09-09T08:31:24;18.30;99.90
17529;DHT22;8882;53.192;8.184;2022-09-09T08:33:50;18.30;99.90
17529;DHT22;8882;53.192;8.184;2022-09-09T08:36:21;18.40;99.90
17529;DHT22;8882;53.192;8.184;2022-09-09T08:38:51;18.50;99.90
17529;DHT22;8882;53.192;8.184;2022-09-09T08:41:53;18.70;99.90
17529;DHT22;8882;53.192;8.184;2022-09-09T08:44:45;18.90;99.90
17529;DHT22;8882;53.192;8.184;2022-09-09T08:47:42;18.90;99.90
17529;DHT22;8882;53.192;8.184;2022-09-09T08:53:03;19.10;99.90
17529;DHT22;8882;53.192;8.184;2022-09-09T08:55:45;19.30;99.90
17529;DHT22;8882;53.192;8.184;2022-09-09T08:58:19;19.40;99.90
17529;DHT22;8882;53.192;8.184;2022-09-09T09:11:50;19.70;99.90
17529;DHT22;8882;53.192;8.184;2022-09-09T09:14:26;19.90;99.90
17529;DHT22;8882;53.192;8.184;2022-09-09T09:16:58;19.90;99.90
17529;DHT22;8882;53.192;8.184;2022-09-09T09:19:26;19.90;99.90
17529;DHT22;8882;53.192;8.184;2022-09-09T09:22:16;19.80;99.90
17529;DHT22;8882;53.192;8.184;2022-09-09T09:24:49;19.90;99.90
17529;DHT22;8882;53.192;8.184;2022-09-09T09:27:31;20.20;99.90
17529;DHT22;8882;53.192;8.184;2022-09-09T09:29:59;20.20;99.90
17529;DHT22;8882;53.192;8.184;2022-09-09T09:32:28;20.20;99.90
17529;DHT22;8882;53.192;8.184;2022-09-09T09:34:56;20.30;99.90
17529;DHT22;8882;53.192;8.184;2022-09-09T09:37:29;20.40;99.90
17529;DHT22;8882;53.192;8.184;2022-09-09T09:39:55;20.50;99.90
17529;DHT22;8882;53.192;8.184;2022-09-09T09:42:20;20.80;99.90
17529;DHT22;8882;53.192;8.184;2022-09-09T09:44:46;21.00;99.90
17529;DHT22;8882;53.192;8.184;2022-09-09T09:47:21;21.50;99.90
17529;DHT22;8882;53.192;8.184;2022-09-09T09:49:56;21.50;99.90
17529;DHT22;8882;53.192;8.184;2022-09-09T09:52:26;21.40;99.90
17529;DHT22;8882;53.192;8.184;2022-09-09T09:54:54;21.20;99.90
17529;DHT22;8882;53.192;8.184;2022-09-09T09:57:24;21.20;99.90
17529;DHT22;8882;53.192;8.184;2022-09-09T10:00:02;21.10;99.90
17529;DHT22;8882;53.192;8.184;2022-09-09T10:02:39;21.10;99.90
17529;DHT22;8882;53.192;8.184;2022-09-09T10:07:34;21.10;99.90
17529;DHT22;8882;53.192;8.184;2022-09-09T10:10:01;21.10;99.90
17529;DHT22;8882;53.192;8.184;2022-09-09T10:15:42;21.20;99.90
17529;DHT22;8882;53.192;8.184;2022-09-09T10:24:02;21.00;99.90
17529;DHT22;8882;53.192;8.184;2022-09-09T10:26:37;21.20;99.90
17529;DHT22;8882;53.192;8.184;2022-09-09T10:34:55;21.50;99.90
17529;DHT22;8882;53.192;8.184;2022-09-09T10:37:34;21.80;99.90
17529;DHT22;8882;53.192;8.184;2022-09-09T10:40:26;21.80;99.90
17529;DHT22;8882;53.192;8.184;2022-09-09T10:42:59;22.10;99.90
17529;DHT22;8882;53.192;8.184;2022-09-09T10:49:00;21.70;99.90
17529;DHT22;8882;53.192;8.184;2022-09-09T10:51:36;21.60;99.90
17529;DHT22;8882;53.192;8.184;2022-09-09T10:54:32;21.50;99.90
17529;DHT22;8882;53.192;8.184;2022-09-09T10:57:03;21.30;99.90
17529;DHT22;8882;53.192;8.184;2022-09-09T10:59:35;21.20;99.90
17529;DHT22;8882;53.192;8.184;2022-09-09T11:02:15;21.10;99.90
17529;DHT22;8882;53.192;8.184;2022-09-09T11:04:52;21.00;99.90
17529;DHT22;8882;53.192;8.184;2022-09-09T11:07:30;21.20;99.90
17529;DHT22;8882;53.192;8.184;2022-09-09T11:10:03;21.50;99.90
17529;DHT22;8882;53.192;8.184;2022-09-09T11:12:34;21.70;99.90
17529;DHT22;8882;53.192;8.184;2022-09-09T11:15:13;21.80;99.90
17529;DHT22;8882;53.192;8.184;2022-09-09T11:17:44;21.80;99.90
17529;DHT22;8882;53.192;8.184;2022-09-09T11:20:13;21.80;99.90
17529;DHT22;8882;53.192;8.184;2022-09-09T11:22:55;21.70;99.90
17529;DHT22;8882;53.192;8.184;2022-09-09T11:25:42;21.70;99.90
17529;DHT22;8882;53.192;8.184;2022-09-09T11:39:44;22.00;99.90
17529;DHT22;8882;53.192;8.184;2022-09-09T11:44:39;22.30;99.90
17529;DHT22;8882;53.192;8.184;2022-09-09T11:47:29;22.40;99.90
17529;DHT22;8882;53.192;8.184;2022-09-09T11:50:40;22.60;99.90
17529;DHT22;8882;53.192;8.184;2022-09-09T11:52:45;22.40;99.90
17529;DHT22;8882;53.192;8.184;2022-09-09T12:00:50;22.10;99.90
17529;DHT22;8882;53.192;8.184;2022-09-09T12:06:30;22.10;99.90
17529;DHT22;8882;53.192;8.184;2022-09-09T12:09:19;22.10;99.90
17529;DHT22;8882;53.192;8.184;2022-09-09T12:11:49;22.10;99.90
17529;DHT22;8882;53.192;8.184;2022-09-09T12:14:44;22.00;99.90
17529;DHT22;8882;53.192;8.184;2022-09-09T12:19:39;21.90;99.90
17529;DHT22;8882;53.192;8.184;2022-09-09T12:24:58;21.50;99.90
17529;DHT22;8882;53.192;8.184;2022-09-09T12:27:35;21.50;99.90
17529;DHT22;8882;53.192;8.184;2022-09-09T12:30:08;21.50;99.90
17529;DHT22;8882;53.192;8.184;2022-09-09T12:32:35;21.40;99.90
17529;DHT22;8882;53.192;8.184;2022-09-09T12:35:10;21.30;99.90
17529;DHT22;8882;53.192;8.184;2022-09-09T12:37:43;21.10;99.90
17529;DHT22;8882;53.192;8.184;2022-09-09T12:40:24;21.10;99.90
17529;DHT22;8882;53.192;8.184;2022-09-09T12:42:50;21.00;99.90
17529;DHT22;8882;53.192;8.184;2022-09-09T12:45:21;20.90;99.90
17529;DHT22;8882;53.192;8.184;2022-09-09T12:47:59;20.90;99.90
17529;DHT22;8882;53.192;8.184;2022-09-09T12:50:47;20.80;99.90
17529;DHT22;8882;53.192;8.184;2022-09-09T12:53:23;20.70;99.90
17529;DHT22;8882;53.192;8.184;2022-09-09T12:55:54;20.60;99.90
17529;DHT22;8882;53.192;8.184;2022-09-09T12:58:21;20.50;99.90
17529;DHT22;8882;53.192;8.184;2022-09-09T13:00:51;20.40;99.90
17529;DHT22;8882;53.192;8.184;2022-09-09T13:03:19;20.30;99.90
17529;DHT22;8882;53.192;8.184;2022-09-09T13:05:49;20.20;99.90
17529;DHT22;8882;53.192;8.184;2022-09-09T13:08:16;20.20;99.90
17529;DHT22;8882;53.192;8.184;2022-09-09T13:10:53;20.10;99.90
17529;DHT22;8882;53.192;8.184;2022-09-09T13:13:26;20.00;99.90
17529;DHT22;8882;53.192;8.184;2022-09-09T13:15:54;19.90;99.90
17529;DHT22;8882;53.192;8.184;2022-09-09T13:18:24;19.80;99.90
17529;DHT22;8882;53.192;8.184;2022-09-09T13:20:51;19.80;99.90
17529;DHT22;8882;53.192;8.184;2022-09-09T13:23:19;19.80;99.90
17529;DHT22;8882;53.192;8.184;2022-09-09T13:25:59;19.80;99.90
17529;DHT22;8882;53.192;8.184;2022-09-09T13:28:28;19.80;99.90
17529;DHT22;8882;53.192;8.184;2022-09-09T13:31:38;19.70;99.90
17529;DHT22;8882;53.192;8.184;2022-09-09T13:33:44;19.70;99.90
17529;DHT22;8882;53.192;8.184;2022-09-09T13:36:11;19.70;99.90
17529;DHT22;8882;53.192;8.184;2022-09-09T13:38:52;19.70;99.90
17529;DHT22;8882;53.192;8.184;2022-09-09T13:41:23;19.70;99.90
17529;DHT22;8882;53.192;8.184;2022-09-09T13:43:50;19.60;99.90
17529;DHT22;8882;53.192;8.184;2022-09-09T13:46:38;19.50;99.90
17529;DHT22;8882;53.192;8.184;2022-09-09T13:54:06;19.40;99.90
17529;DHT22;8882;53.192;8.184;2022-09-09T13:56:34;19.40;99.90
17529;DHT22;8882;53.192;8.184;2022-09-09T13:59:00;19.40;99.90
17529;DHT22;8882;53.192;8.184;2022-09-09T14:01:27;19.40;99.90
17529;DHT22;8882;53.192;8.184;2022-09-09T14:03:53;19.40;99.90
17529;DHT22;8882;53.192;8.184;2022-09-09T14:06:18;19.40;99.90
17529;DHT22;8882;53.192;8.184;2022-09-09T14:08:44;19.40;99.90
17529;DHT22;8882;53.192;8.184;2022-09-09T14:11:12;19.50;99.90
17529;DHT22;8882;53.192;8.184;2022-09-09T14:13:38;19.50;99.90
17529;DHT22;8882;53.192;8.184;2022-09-09T14:16:04;19.40;99.90
17529;DHT22;8882;53.192;8.184;2022-09-09T14:18:29;19.40;99.90
17529;DHT22;8882;53.192;8.184;2022-09-09T14:20:55;19.20;99.90
17529;DHT22;8882;53.192;8.184;2022-09-09T14:23:22;19.20;99.90
17529;DHT22;8882;53.192;8.184;2022-09-09T14:25:48;19.10;99.90
17529;DHT22;8882;53.192;8.184;2022-09-09T14:28:14;19.10;99.90
17529;DHT22;8882;53.192;8.184;2022-09-09T14:30:41;19.10;99.90
17529;DHT22;8882;53.192;8.184;2022-09-09T14:33:08;19.00;99.90
17529;DHT22;8882;53.192;8.184;2022-09-09T14:35:34;18.90;99.90
17529;DHT22;8882;53.192;8.184;2022-09-09T14:38:01;18.90;99.90
17529;DHT22;8882;53.192;8.184;2022-09-09T14:40:27;19.00;99.90
17529;DHT22;8882;53.192;8.184;2022-09-09T14:42:53;19.00;99.90
17529;DHT22;8882;53.192;8.184;2022-09-09T14:45:19;19.00;99.90
17529;DHT22;8882;53.192;8.184;2022-09-09T14:47:46;18.90;99.90
17529;DHT22;8882;53.192;8.184;2022-09-09T14:50:12;18.90;99.90
17529;DHT22;8882;53.192;8.184;2022-09-09T14:52:38;18.90;99.90
17529;DHT22;8882;53.192;8.184;2022-09-09T14:55:04;18.90;99.90
17529;DHT22;8882;53.192;8.184;2022-09-09T14:57:30;18.90;99.90
17529;DHT22;8882;53.192;8.184;2022-09-09T14:59:56;18.90;99.90
17529;DHT22;8882;53.192;8.184;2022-09-09T15:02:22;19.00;99.90
17529;DHT22;8882;53.192;8.184;2022-09-09T15:04:47;19.00;99.90
17529;DHT22;8882;53.192;8.184;2022-09-09T15:07:15;19.00;99.90
17529;DHT22;8882;53.192;8.184;2022-09-09T15:09:41;19.00;99.90
17529;DHT22;8882;53.192;8.184;2022-09-09T15:12:07;19.00;99.90
17529;DHT22;8882;53.192;8.184;2022-09-09T15:14:33;18.80;99.90
17529;DHT22;8882;53.192;8.184;2022-09-09T15:16:58;18.80;99.90
17529;DHT22;8882;53.192;8.184;2022-09-09T15:19:24;18.80;99.90
17529;DHT22;8882;53.192;8.184;2022-09-09T15:21:49;18.70;99.90
17529;DHT22;8882;53.192;8.184;2022-09-09T15:24:15;18.70;99.90
17529;DHT22;8882;53.192;8.184;2022-09-09T15:26:41;18.60;99.90
17529;DHT22;8882;53.192;8.184;2022-09-09T15:29:07;18.60;99.90
17529;DHT22;8882;53.192;8.184;2022-09-09T15:31:33;18.60;99.90
17529;DHT22;8882;53.192;8.184;2022-09-09T15:34:01;18.60;99.90
17529;DHT22;8882;53.192;8.184;2022-09-09T15:39:01;18.60;99.90
17529;DHT22;8882;53.192;8.184;2022-09-09T15:41:27;18.60;99.90
17529;DHT22;8882;53.192;8.184;2022-09-09T15:43:55;18.60;99.90
17529;DHT22;8882;53.192;8.184;2022-09-09T15:46:28;18.60;99.90
17529;DHT22;8882;53.192;8.184;2022-09-09T15:49:02;18.60;99.90
17529;DHT22;8882;53.192;8.184;2022-09-09T15:51:28;18.60;99.90
17529;DHT22;8882;53.192;8.184;2022-09-09T15:53:55;18.50;99.90
17529;DHT22;8882;53.192;8.184;2022-09-09T15:56:21;18.50;99.90
17529;DHT22;8882;53.192;8.184;2022-09-09T15:58:47;18.50;99.90
17529;DHT22;8882;53.192;8.184;2022-09-09T16:01:12;18.50;99.90
17529;DHT22;8882;53.192;8.184;2022-09-09T16:03:40;18.60;99.90
17529;DHT22;8882;53.192;8.184;2022-09-09T16:06:13;18.60;99.90
17529;DHT22;8882;53.192;8.184;2022-09-09T16:08:44;18.60;99.90
17529;DHT22;8882;53.192;8.184;2022-09-09T16:11:13;18.70;99.90
17529;DHT22;8882;53.192;8.184;2022-09-09T16:13:43;18.70;99.90
17529;DHT22;8882;53.192;8.184;2022-09-09T16:16:12;18.70;99.90
17529;DHT22;8882;53.192;8.184;2022-09-09T16:18:49;18.70;99.90
17529;DHT22;8882;53.192;8.184;2022-09-09T16:21:21;18.80;99.90
17529;DHT22;8882;53.192;8.184;2022-09-09T16:23:47;18.90;99.90
17529;DHT22;8882;53.192;8.184;2022-09-09T16:26:15;18.90;99.90
17529;DHT22;8882;53.192;8.184;2022-09-09T16:28:40;18.90;99.90
17529;DHT22;8882;53.192;8.184;2022-09-09T16:31:07;18.80;99.90
17529;DHT22;8882;53.192;8.184;2022-09-09T16:33:33;18.80;99.90
17529;DHT22;8882;53.192;8.184;2022-09-09T16:36:05;18.80;99.90
17529;DHT22;8882;53.192;8.184;2022-09-09T16:38:31;18.80;99.90
17529;DHT22;8882;53.192;8.184;2022-09-09T16:41:00;18.80;99.90
17529;DHT22;8882;53.192;8.184;2022-09-09T16:43:26;18.70;99.90
17529;DHT22;8882;53.192;8.184;2022-09-09T16:45:51;18.70;99.90
17529;DHT22;8882;53.192;8.184;2022-09-09T16:48:17;18.70;99.90
17529;DHT22;8882;53.192;8.184;2022-09-09T16:50:42;18.60;99.90
17529;DHT22;8882;53.192;8.184;2022-09-09T16:53:07;18.60;99.90
17529;DHT22;8882;53.192;8.184;2022-09-09T16:55:40;18.60;99.90
17529;DHT22;8882;53.192;8.184;2022-09-09T16:58:07;18.60;99.90
17529;DHT22;8882;53.192;8.184;2022-09-09T17:00:34;18.60;99.90
17529;DHT22;8882;53.192;8.184;2022-09-09T17:02:59;18.60;99.90
17529;DHT22;8882;53.192;8.184;2022-09-09T17:05:25;18.60;99.90
17529;DHT22;8882;53.192;8.184;2022-09-09T17:07:50;18.60;99.90
17529;DHT22;8882;53.192;8.184;2022-09-09T17:10:17;18.60;99.90
17529;DHT22;8882;53.192;8.184;2022-09-09T17:12:42;18.50;99.90
17529;DHT22;8882;53.192;8.184;2022-09-09T17:15:08;18.30;99.90
17529;DHT22;8882;53.192;8.184;2022-09-09T17:17:34;18.10;99.90
17529;DHT22;8882;53.192;8.184;2022-09-09T17:20:00;18.00;99.90
17529;DHT22;8882;53.192;8.184;2022-09-09T17:22:27;17.90;99.90
17529;DHT22;8882;53.192;8.184;2022-09-09T17:24:54;17.90;99.90
17529;DHT22;8882;53.192;8.184;2022-09-09T17:27:20;17.80;99.90
17529;DHT22;8882;53.192;8.184;2022-09-09T17:29:45;17.80;99.90
17529;DHT22;8882;53.192;8.184;2022-09-09T17:32:11;17.70;99.90
17529;DHT22;8882;53.192;8.184;2022-09-09T17:34:37;17.70;99.90
17529;DHT22;8882;53.192;8.184;2022-09-09T17:37:03;17.70;99.90
17529;DHT22;8882;53.192;8.184;2022-09-09T17:39:31;17.60;99.90
17529;DHT22;8882;53.192;8.184;2022-09-09T17:41:56;17.60;99.90
17529;DHT22;8882;53.192;8.184;2022-09-09T17:44:22;17.60;99.90
17529;DHT22;8882;53.192;8.184;2022-09-09T17:46:48;17.60;99.90
17529;DHT22;8882;53.192;8.184;2022-09-09T17:49:15;17.60;99.90
17529;DHT22;8882;53.192;8.184;2022-09-09T17:51:42;17.50;99.90
17529;DHT22;8882;53.192;8.184;2022-09-09T17:54:11;17.50;99.90
17529;DHT22;8882;53.192;8.184;2022-09-09T17:56:38;17.40;99.90
17529;DHT22;8882;53.192;8.184;2022-09-09T17:59:06;17.40;99.90
17529;DHT22;8882;53.192;8.184;2022-09-09T18:01:35;17.50;99.90
17529;DHT22;8882;53.192;8.184;2022-09-09T18:04:03;17.50;99.90
17529;DHT22;8882;53.192;8.184;2022-09-09T18:06:35;17.40;99.90
17529;DHT22;8882;53.192;8.184;2022-09-09T18:09:04;17.30;99.90
17529;DHT22;8882;53.192;8.184;2022-09-09T18:11:32;17.30;99.90
17529;DHT22;8882;53.192;8.184;2022-09-09T18:14:01;17.20;99.90
17529;DHT22;8882;53.192;8.184;2022-09-09T18:16:29;17.20;99.90
17529;DHT22;8882;53.192;8.184;2022-09-09T18:18:56;17.10;99.90
17529;DHT22;8882;53.192;8.184;2022-09-09T18:21:23;17.10;99.90
17529;DHT22;8882;53.192;8.184;2022-09-09T18:23:50;17.00;99.90
17529;DHT22;8882;53.192;8.184;2022-09-09T18:26:24;16.90;99.90
17529;DHT22;8882;53.192;8.184;2022-09-09T18:28:53;16.90;99.90
17529;DHT22;8882;53.192;8.184;2022-09-09T18:31:21;16.80;99.90
17529;DHT22;8882;53.192;8.184;2022-09-09T18:33:50;16.80;99.90
17529;DHT22;8882;53.192;8.184;2022-09-09T18:36:22;16.80;99.90
17529;DHT22;8882;53.192;8.184;2022-09-09T18:38:48;16.80;99.90
17529;DHT22;8882;53.192;8.184;2022-09-09T18:43:52;16.80;99.90
17529;DHT22;8882;53.192;8.184;2022-09-09T18:46:19;16.70;99.90
17529;DHT22;8882;53.192;8.184;2022-09-09T18:48:46;16.60;99.90
17529;DHT22;8882;53.192;8.184;2022-09-09T18:51:14;16.50;99.90
17529;DHT22;8882;53.192;8.184;2022-09-09T18:53:41;16.50;99.90
17529;DHT22;8882;53.192;8.184;2022-09-09T18:56:11;16.30;99.90
17529;DHT22;8882;53.192;8.184;2022-09-09T18:58:38;16.30;99.90
17529;DHT22;8882;53.192;8.184;2022-09-09T19:01:09;16.20;99.90
17529;DHT22;8882;53.192;8.184;2022-09-09T19:03:35;16.20;99.90
17529;DHT22;8882;53.192;8.184;2022-09-09T19:06:14;16.20;99.90
17529;DHT22;8882;53.192;8.184;2022-09-09T19:08:41;16.10;99.90
17529;DHT22;8882;53.192;8.184;2022-09-09T19:11:09;16.20;99.90
17529;DHT22;8882;53.192;8.184;2022-09-09T19:13:35;16.10;99.90
17529;DHT22;8882;53.192;8.184;2022-09-09T19:16:07;16.10;99.90
17529;DHT22;8882;53.192;8.184;2022-09-09T19:18:33;16.10;99.90
17529;DHT22;8882;53.192;8.184;2022-09-09T19:21:23;16.00;99.90
17529;DHT22;8882;53.192;8.184;2022-09-09T19:23:55;16.00;99.90
17529;DHT22;8882;53.192;8.184;2022-09-09T19:26:21;16.00;99.90
17529;DHT22;8882;53.192;8.184;2022-09-09T19:28:47;16.00;99.90
17529;DHT22;8882;53.192;8.184;2022-09-09T19:31:16;16.00;99.90
17529;DHT22;8882;53.192;8.184;2022-09-09T19:33:43;16.00;99.90
17529;DHT22;8882;53.192;8.184;2022-09-09T19:36:11;16.00;99.90
17529;DHT22;8882;53.192;8.184;2022-09-09T19:38:37;16.10;99.90
17529;DHT22;8882;53.192;8.184;2022-09-09T19:41:09;16.10;99.90
17529;DHT22;8882;53.192;8.184;2022-09-09T19:43:36;16.00;99.90
17529;DHT22;8882;53.192;8.184;2022-09-09T19:46:04;16.00;99.90
17529;DHT22;8882;53.192;8.184;2022-09-09T19:48:31;16.00;99.90
17529;DHT22;8882;53.192;8.184;2022-09-09T19:51:17;15.90;99.90
17529;DHT22;8882;53.192;8.184;2022-09-09T19:53:51;15.90;99.90
17529;DHT22;8882;53.192;8.184;2022-09-09T19:56:19;15.80;99.90
17529;DHT22;8882;53.192;8.184;2022-09-09T19:58:47;15.80;99.90
17529;DHT22;8882;53.192;8.184;2022-09-09T20:01:18;15.80;99.90
17529;DHT22;8882;53.192;8.184;2022-09-09T20:03:46;15.90;99.90
17529;DHT22;8882;53.192;8.184;2022-09-09T20:06:15;15.90;99.90
17529;DHT22;8882;53.192;8.184;2022-09-09T20:08:43;15.90;99.90
17529;DHT22;8882;53.192;8.184;2022-09-09T20:11:10;15.90;99.90
17529;DHT22;8882;53.192;8.184;2022-09-09T20:13:37;15.90;99.90
17529;DHT22;8882;53.192;8.184;2022-09-09T20:16:32;15.90;99.90
17529;DHT22;8882;53.192;8.184;2022-09-09T20:19:00;15.90;99.90
17529;DHT22;8882;53.192;8.184;2022-09-09T20:21:29;15.80;99.90
17529;DHT22;8882;53.192;8.184;2022-09-09T20:23:57;15.80;99.90
17529;DHT22;8882;53.192;8.184;2022-09-09T20:26:24;15.70;99.90
17529;DHT22;8882;53.192;8.184;2022-09-09T20:28:52;15.70;99.90
17529;DHT22;8882;53.192;8.184;2022-09-09T20:31:28;15.70;99.90
17529;DHT22;8882;53.192;8.184;2022-09-09T20:33:55;15.70;99.90
17529;DHT22;8882;53.192;8.184;2022-09-09T20:36:24;15.70;99.90
17529;DHT22;8882;53.192;8.184;2022-09-09T20:38:53;15.70;99.90
17529;DHT22;8882;53.192;8.184;2022-09-09T20:41:20;15.70;99.90
17529;DHT22;8882;53.192;8.184;2022-09-09T20:43:48;15.70;99.90
17529;DHT22;8882;53.192;8.184;2022-09-09T20:46:16;15.70;99.90
17529;DHT22;8882;53.192;8.184;2022-09-09T20:48:46;15.70;99.90
17529;DHT22;8882;53.192;8.184;2022-09-09T20:51:13;15.70;99.90
17529;DHT22;8882;53.192;8.184;2022-09-09T20:53:40;15.70;99.90
17529;DHT22;8882;53.192;8.184;2022-09-09T20:56:07;15.70;99.90
17529;DHT22;8882;53.192;8.184;2022-09-09T20:58:34;15.70;99.90
